createdAt,value
2022-08-04T00:02:27.272Z,100217.72
2022-08-04T00:05:08.795Z,100214.94
2022-08-04T00:07:45.385Z,100209.09
2022-08-04T00:10:16.296Z,100197.56
2022-08-04T00:12:48.363Z,100205.59
2022-08-04T00:15:17.008Z,100209.91
2022-08-04T00:17:54.249Z,100201.88
2022-08-04T00:20:21.695Z,100198.22
2022-08-04T00:22:52.025Z,100198.59
2022-08-04T00:25:19.528Z,100198.59
2022-08-04T00:27:46.995Z,100190.72
2022-08-04T00:30:13.773Z,100203.25
2022-08-04T00:32:41.147Z,100200.56
2022-08-04T00:35:09.831Z,100201.94
2022-08-04T00:37:38.080Z,100196.19
2022-08-04T00:40:22.437Z,100194.91
2022-08-04T00:43:08.121Z,100199.13
2022-08-04T00:46:10.970Z,100193.53
2022-08-04T00:48:42.603Z,100203.00
2022-08-04T00:51:47.126Z,100199.78
2022-08-04T00:54:16.879Z,100196.22
2022-08-04T00:57:34.025Z,100200.16
2022-08-04T01:00:14.528Z,100200.13
2022-08-04T01:02:53.589Z,100189.03
2022-08-04T01:05:46.611Z,100200.88
2022-08-04T01:08:36.079Z,100196.88
2022-08-04T01:11:56.805Z,100200.28
2022-08-04T01:15:01.729Z,100209.16
2022-08-04T01:17:40.305Z,100208.56
2022-08-04T01:20:13.230Z,100209.72
2022-08-04T01:23:04.108Z,100212.47
2022-08-04T01:25:34.030Z,100209.53
2022-08-04T01:28:29.922Z,100209.34
2022-08-04T01:31:06.439Z,100206.28
2022-08-04T01:34:02.961Z,100207.56
2022-08-04T01:36:26.422Z,100200.63
2022-08-04T01:38:54.380Z,100208.69
2022-08-04T01:41:32.215Z,100204.50
2022-08-04T01:44:02.749Z,100195.44
2022-08-04T01:46:33.761Z,100200.44
2022-08-04T01:49:02.808Z,100197.63
2022-08-04T01:51:36.023Z,100193.13
2022-08-04T01:54:02.790Z,100192.72
2022-08-04T01:56:31.080Z,100193.81
2022-08-04T01:58:58.002Z,100186.84
2022-08-04T02:01:25.262Z,100184.44
2022-08-04T02:04:21.987Z,100184.88
2022-08-04T02:06:47.567Z,100182.34
2022-08-04T02:09:20.325Z,100182.69
2022-08-04T02:12:04.013Z,100181.19
2022-08-04T02:14:55.885Z,100171.66
2022-08-04T02:17:29.170Z,100173.47
2022-08-04T02:20:05.486Z,100178.59
2022-08-04T02:22:34.358Z,100179.59
2022-08-04T02:25:10.002Z,100161.75
2022-08-04T02:27:59.974Z,100175.41
2022-08-04T02:31:05.794Z,100167.50
2022-08-04T02:33:43.227Z,100169.47
2022-08-04T02:36:16.580Z,100170.63
2022-08-04T02:39:00.054Z,100171.41
2022-08-04T02:41:29.380Z,100168.66
2022-08-04T02:44:00.710Z,100170.31
2022-08-04T02:46:28.826Z,100175.22
2022-08-04T02:48:56.532Z,100172.53
2022-08-04T02:51:29.373Z,100172.56
2022-08-04T02:54:00.095Z,100177.97
2022-08-04T02:56:30.976Z,100173.44
2022-08-04T02:59:09.221Z,100166.22
2022-08-04T03:01:36.240Z,100162.75
2022-08-04T03:04:24.446Z,100176.44
2022-08-04T03:07:20.020Z,100181.25
2022-08-04T03:09:55.122Z,100176.19
2022-08-04T03:12:32.140Z,100173.06
2022-08-04T03:15:45.960Z,100170.47
2022-08-04T03:18:21.923Z,100179.38
2022-08-04T03:21:13.363Z,100179.38
2022-08-04T03:24:02.199Z,100182.13
2022-08-04T03:26:52.420Z,100180.16
2022-08-04T03:29:47.403Z,100176.13
2022-08-04T03:32:26.061Z,100178.56
2022-08-04T03:35:47.052Z,100172.78
2022-08-04T03:38:38.625Z,100180.59
2022-08-04T03:41:59.874Z,100191.03
2022-08-04T03:44:40.445Z,100194.25
2022-08-04T03:47:54.907Z,100188.59
2022-08-04T03:51:34.941Z,100198.22
2022-08-04T03:54:18.935Z,100186.53
2022-08-04T03:57:18.880Z,100195.34
2022-08-04T04:00:05.001Z,100186.28
2022-08-04T04:03:12.967Z,100193.56
2022-08-04T04:06:10.183Z,100191.47
2022-08-04T04:09:02.657Z,100187.13
2022-08-04T04:11:57.132Z,100191.84
2022-08-04T04:14:49.958Z,100191.66
2022-08-04T04:17:44.490Z,100196.16
2022-08-04T04:20:40.053Z,100187.31
2022-08-04T04:23:24.549Z,100192.53
2022-08-04T04:26:12.865Z,100202.19
2022-08-04T04:29:17.763Z,100201.63
2022-08-04T04:31:57.441Z,100203.53
2022-08-04T04:34:45.861Z,100205.13
2022-08-04T04:37:15.941Z,100213.75
2022-08-04T04:40:18.238Z,100207.25
2022-08-04T04:43:03.531Z,100211.22
2022-08-04T04:46:11.144Z,100210.50
2022-08-04T04:48:44.951Z,100206.72
2022-08-04T04:51:25.986Z,100202.28
2022-08-04T04:54:08.066Z,100209.47
2022-08-04T04:56:43.810Z,100216.59
2022-08-04T04:59:15.490Z,100207.94
2022-08-04T05:02:19.720Z,100209.53
2022-08-04T05:05:06.117Z,100211.84
2022-08-04T05:08:42.990Z,100207.41
2022-08-04T05:11:18.172Z,100214.06
2022-08-04T05:14:37.802Z,100219.75
2022-08-04T05:16:40.495Z,100225.25
2022-08-04T05:19:07.136Z,100218.16
2022-08-04T05:21:46.017Z,100219.84
2022-08-04T05:24:17.703Z,100218.28
2022-08-04T05:26:47.380Z,100224.28
2022-08-04T05:29:25.967Z,100230.22
2022-08-04T05:32:02.878Z,100226.03
2022-08-04T05:34:35.548Z,100229.47
2022-08-04T05:37:09.258Z,100219.94
2022-08-04T05:39:53.199Z,100229.72
2022-08-04T05:42:21.415Z,100226.69
2022-08-04T05:44:51.404Z,100232.97
2022-08-04T05:47:21.443Z,100227.75
2022-08-04T05:50:01.045Z,100225.75
2022-08-04T05:52:32.338Z,100228.88
2022-08-04T05:55:01.696Z,100231.78
2022-08-04T05:57:31.658Z,100236.16
2022-08-04T06:00:14.855Z,100241.31
2022-08-04T06:02:52.254Z,100233.28
2022-08-04T06:05:19.535Z,100238.06
2022-08-04T06:08:12.692Z,100237.13
2022-08-04T06:10:37.604Z,100241.19
2022-08-04T06:13:08.637Z,100224.28
2022-08-04T06:15:39.173Z,100229.47
2022-08-04T06:18:32.880Z,100231.50
2022-08-04T06:21:03.745Z,100234.31
2022-08-04T06:23:52.985Z,100237.56
2022-08-04T06:26:27.668Z,100230.97
2022-08-04T06:28:55.302Z,100243.13
2022-08-04T06:32:27.056Z,100237.47
2022-08-04T06:34:35.539Z,100241.72
2022-08-04T06:37:03.906Z,100242.91
2022-08-04T06:39:32.946Z,100244.47
2022-08-04T06:42:21.944Z,100241.00
2022-08-04T06:44:51.270Z,100242.09
2022-08-04T06:47:21.340Z,100243.63
2022-08-04T06:51:27.574Z,100253.44
2022-08-04T06:52:44.751Z,100250.81
2022-08-04T06:55:11.944Z,100247.84
2022-08-04T06:57:40.990Z,100251.88
2022-08-04T07:00:12.264Z,100254.06
2022-08-04T07:02:44.072Z,100253.19
2022-08-04T07:05:12.165Z,100254.88
2022-08-04T07:07:56.917Z,100258.66
2022-08-04T07:10:25.215Z,100253.41
2022-08-04T07:12:53.950Z,100256.00
2022-08-04T07:15:21.665Z,100250.69
2022-08-04T07:17:52.354Z,100246.00
2022-08-04T07:20:35.354Z,100245.72
2022-08-04T07:23:07.326Z,100243.13
2022-08-04T07:26:00.388Z,100247.47
2022-08-04T07:28:25.702Z,100255.13
2022-08-04T07:30:53.974Z,100247.69
2022-08-04T07:33:21.817Z,100242.41
2022-08-04T07:36:04.928Z,100239.84
2022-08-04T07:38:50.834Z,100240.34
2022-08-04T07:41:40.296Z,100235.88
2022-08-04T07:44:08.194Z,100237.53
2022-08-04T07:46:36.365Z,100248.69
2022-08-04T07:49:03.912Z,100244.44
2022-08-04T07:51:31.592Z,100249.00
2022-08-04T07:54:00.194Z,100242.31
2022-08-04T07:56:27.811Z,100245.97
2022-08-04T07:58:55.318Z,100244.69
2022-08-04T08:01:25.716Z,100243.31
2022-08-04T08:03:54.292Z,100240.66
2022-08-04T08:06:33.290Z,100240.94
2022-08-04T08:09:12.409Z,100237.66
2022-08-04T08:12:38.105Z,100240.84
2022-08-04T08:14:30.688Z,100243.34
2022-08-04T08:17:00.196Z,100238.72
2022-08-04T08:19:26.993Z,100239.16
2022-08-04T08:21:59.092Z,100243.25
2022-08-04T08:24:31.779Z,100235.81
2022-08-04T08:27:00.016Z,100232.00
2022-08-04T08:29:29.324Z,100235.16
2022-08-04T08:32:01.431Z,100232.72
2022-08-04T08:34:31.923Z,100235.44
2022-08-04T08:37:07.636Z,100235.16
2022-08-04T08:40:04.856Z,100232.88
2022-08-04T08:42:47.493Z,100232.66
2022-08-04T08:45:46.513Z,100224.47
2022-08-04T08:49:04.472Z,100226.84
2022-08-04T08:52:03.565Z,100231.31
2022-08-04T08:54:42.609Z,100237.94
2022-08-04T08:57:24.524Z,100235.28
2022-08-04T08:59:54.081Z,100236.56
2022-08-04T09:03:04.790Z,100240.00
2022-08-04T09:05:59.442Z,100233.31
2022-08-04T09:09:00.681Z,100233.72
2022-08-04T09:11:41.901Z,100232.97
2022-08-04T09:14:23.922Z,100233.06
2022-08-04T09:17:03.500Z,100237.06
2022-08-04T09:19:42.278Z,100240.63
2022-08-04T09:22:20.443Z,100238.19
2022-08-04T09:25:10.979Z,100231.47
2022-08-04T09:28:52.482Z,100243.50
2022-08-04T09:31:17.203Z,100240.44
2022-08-04T09:34:09.718Z,100233.09
2022-08-04T09:36:48.336Z,100234.28
2022-08-04T09:39:53.942Z,100231.25
2022-08-04T09:43:05.168Z,100228.00
2022-08-04T09:45:44.101Z,100228.06
2022-08-04T09:48:22.704Z,100240.31
2022-08-04T09:50:58.123Z,100237.53
2022-08-04T09:53:36.768Z,100235.25
2022-08-04T09:56:10.092Z,100228.81
2022-08-04T09:58:58.203Z,100232.44
2022-08-04T10:01:28.699Z,100227.59
2022-08-04T10:04:02.666Z,100232.00
2022-08-04T10:06:57.472Z,100226.41
2022-08-04T10:09:47.919Z,100227.28
2022-08-04T10:12:23.614Z,100227.66
2022-08-04T10:15:10.869Z,100222.59
2022-08-04T10:18:09.202Z,100214.66
2022-08-04T10:20:59.023Z,100209.09
2022-08-04T10:23:28.142Z,100211.13
2022-08-04T10:26:15.258Z,100212.34
2022-08-04T10:28:46.519Z,100206.00
2022-08-04T10:31:20.751Z,100209.56
2022-08-04T10:33:58.447Z,100207.97
2022-08-04T10:36:31.887Z,100202.41
2022-08-04T10:39:06.567Z,100204.47
2022-08-04T10:42:11.254Z,100199.69
2022-08-04T10:44:57.317Z,100197.34
2022-08-04T10:47:31.968Z,100194.94
2022-08-04T10:50:01.350Z,100199.72
2022-08-04T10:52:55.088Z,100197.72
2022-08-04T10:56:06.297Z,100198.13
2022-08-04T10:58:48.027Z,100190.97
2022-08-04T11:01:59.634Z,100191.38
2022-08-04T11:04:27.179Z,100187.78
2022-08-04T11:06:55.423Z,100195.72
2022-08-04T11:09:23.095Z,100187.78
2022-08-04T11:12:00.429Z,100184.22
2022-08-04T11:14:39.531Z,100185.78
2022-08-04T11:17:40.707Z,100187.78
2022-08-04T11:20:35.954Z,100176.28
2022-08-04T11:23:08.844Z,100179.84
2022-08-04T11:25:41.517Z,100181.03
2022-08-04T11:28:23.505Z,100183.38
2022-08-04T11:30:59.374Z,100182.63
2022-08-04T11:33:43.979Z,100182.59
2022-08-04T11:36:36.455Z,100169.44
2022-08-04T11:39:15.694Z,100176.56
2022-08-04T11:41:51.328Z,100173.81
2022-08-04T11:44:43.195Z,100164.28
2022-08-04T11:47:30.387Z,100163.91
2022-08-04T11:50:05.330Z,100164.75
2022-08-04T11:52:34.222Z,100160.75
2022-08-04T11:55:05.635Z,100168.28
2022-08-04T11:57:36.364Z,100156.78
2022-08-04T12:00:10.817Z,100157.53
2022-08-04T12:03:26.070Z,100164.63
2022-08-04T12:06:09.355Z,100159.06
2022-08-04T12:09:02.761Z,100158.34
2022-08-04T12:11:35.654Z,100156.59
2022-08-04T12:14:40.027Z,100143.38
2022-08-04T12:17:15.284Z,100148.66
2022-08-04T12:20:04.580Z,100148.75
2022-08-04T12:22:41.727Z,100139.53
2022-08-04T12:25:21.486Z,100132.69
2022-08-04T12:27:55.100Z,100135.53
2022-08-04T12:30:57.761Z,100133.56
2022-08-04T12:33:20.630Z,100136.38
2022-08-04T12:36:10.830Z,100132.94
2022-08-04T12:38:48.624Z,100128.16
2022-08-04T12:41:21.642Z,100135.97
2022-08-04T12:43:50.235Z,100124.09
2022-08-04T12:46:27.081Z,100135.16
2022-08-04T12:49:01.548Z,100132.34
2022-08-04T12:51:31.124Z,100120.81
2022-08-04T12:54:28.868Z,100131.50
2022-08-04T12:57:01.402Z,100124.81
2022-08-04T12:59:28.569Z,100123.22
2022-08-04T13:02:09.076Z,100133.19
2022-08-04T13:04:42.644Z,100126.84
2022-08-04T13:07:18.817Z,100119.41
2022-08-04T13:09:47.122Z,100117.00
2022-08-04T13:12:16.530Z,100119.00
2022-08-04T13:14:47.323Z,100109.88
2022-08-04T13:17:14.455Z,100103.50
2022-08-04T13:19:47.281Z,100108.22
2022-08-04T13:22:30.123Z,100094.31
2022-08-04T13:26:40.516Z,100092.97
2022-08-04T13:27:48.659Z,100092.72
2022-08-04T13:30:23.122Z,100092.78
2022-08-04T13:32:57.754Z,100086.34
2022-08-04T13:35:55.970Z,100081.56
2022-08-04T13:38:16.850Z,100073.56
2022-08-04T13:40:44.555Z,100077.06
2022-08-04T13:44:16.999Z,100079.72
2022-08-04T13:46:28.753Z,100073.97
2022-08-04T13:49:25.922Z,100073.75
2022-08-04T13:51:57.349Z,100066.16
2022-08-04T13:54:46.978Z,100062.09
2022-08-04T13:57:31.750Z,100064.63
2022-08-04T14:00:09.819Z,100058.63
2022-08-04T14:02:44.111Z,100062.88
2022-08-04T14:05:27.395Z,100057.44
2022-08-04T14:08:05.468Z,100048.78
2022-08-04T14:10:33.241Z,100050.84
2022-08-04T14:13:04.340Z,100061.22
2022-08-04T14:16:01.306Z,100050.47
2022-08-04T14:18:27.534Z,100050.81
2022-08-04T14:21:11.250Z,100047.00
2022-08-04T14:23:53.750Z,100045.19
2022-08-04T14:26:32.354Z,100046.53
2022-08-04T14:29:26.657Z,100035.28
2022-08-04T14:32:01.903Z,100031.19
2022-08-04T14:34:30.622Z,100034.41
2022-08-04T14:37:16.446Z,100035.63
2022-08-04T14:40:17.752Z,100034.66
2022-08-04T14:42:54.496Z,100030.88
2022-08-04T14:45:54.853Z,100026.06
2022-08-04T14:48:22.530Z,100029.88
2022-08-04T14:50:50.907Z,100032.56
2022-08-04T14:53:20.140Z,100028.06
2022-08-04T14:55:52.242Z,100023.94
2022-08-04T14:58:37.259Z,100023.31
2022-08-04T15:01:12.144Z,100018.03
2022-08-04T15:03:52.253Z,100015.34
2022-08-04T15:06:26.086Z,100016.75
2022-08-04T15:08:55.348Z,100018.72
2022-08-04T15:11:24.230Z,100008.94
2022-08-04T15:13:56.171Z,100007.19
2022-08-04T15:16:24.755Z,100004.22
2022-08-04T15:18:54.497Z,100008.16
2022-08-04T15:21:22.456Z,99999.19
2022-08-04T15:23:51.073Z,100004.50
2022-08-04T15:26:51.947Z,100006.41
2022-08-04T15:30:00.416Z,100008.63
2022-08-04T15:32:34.273Z,100006.59
2022-08-04T15:35:08.573Z,100003.38
2022-08-04T15:37:54.037Z,100005.19
2022-08-04T15:40:46.884Z,100000.06
2022-08-04T15:43:22.806Z,99989.63
2022-08-04T15:46:41.999Z,99990.03
2022-08-04T15:48:41.837Z,99984.16
2022-08-04T15:51:14.465Z,99978.00
2022-08-04T15:54:01.365Z,99977.00
2022-08-04T15:56:28.854Z,99980.19
2022-08-04T15:58:57.012Z,99973.22
2022-08-04T16:01:24.372Z,99973.16
2022-08-04T16:03:54.534Z,99965.78
2022-08-04T16:06:42.179Z,99967.03
2022-08-04T16:09:08.872Z,99961.84
2022-08-04T16:11:40.141Z,99960.78
2022-08-04T16:14:11.069Z,99960.13
2022-08-04T16:16:45.291Z,99957.22
2022-08-04T16:19:51.593Z,99944.72
2022-08-04T16:22:39.753Z,99952.22
2022-08-04T16:25:08.610Z,99948.13
2022-08-04T16:27:44.867Z,99951.66
2022-08-04T16:30:14.907Z,99953.59
2022-08-04T16:32:51.904Z,99949.13
2022-08-04T16:35:26.103Z,99945.50
2022-08-04T16:37:55.791Z,99937.41
2022-08-04T16:40:39.511Z,99942.22
2022-08-04T16:43:09.575Z,99942.25
2022-08-04T16:46:01.637Z,99944.56
2022-08-04T16:48:30.745Z,99942.56
2022-08-04T16:51:13.011Z,99940.00
2022-08-04T16:53:53.137Z,99941.69
2022-08-04T16:56:28.617Z,99936.28
2022-08-04T16:58:55.765Z,99932.63
2022-08-04T17:01:33.750Z,99928.75
2022-08-04T17:04:05.881Z,99933.03
2022-08-04T17:06:38.460Z,99928.19
2022-08-04T17:09:10.129Z,99933.22
2022-08-04T17:11:37.149Z,99926.47
2022-08-04T17:14:06.079Z,99929.81
2022-08-04T17:16:38.087Z,99927.06
2022-08-04T17:19:24.422Z,99931.06
2022-08-04T17:22:04.221Z,99932.63
2022-08-04T17:24:38.075Z,99938.84
2022-08-04T17:28:08.843Z,99935.38
2022-08-04T17:29:52.472Z,99932.53
2022-08-04T17:32:21.556Z,99929.84
2022-08-04T17:35:00.226Z,99927.03
2022-08-04T17:37:41.218Z,99929.06
2022-08-04T17:40:22.669Z,99936.72
2022-08-04T17:43:03.025Z,99927.59
2022-08-04T17:46:28.568Z,99924.63
2022-08-04T17:49:16.594Z,99920.22
2022-08-04T17:52:06.832Z,99925.19
2022-08-04T17:54:40.352Z,99929.78
2022-08-04T17:57:19.653Z,99929.91
2022-08-04T17:59:59.982Z,99923.84
2022-08-04T18:02:31.879Z,99928.44
2022-08-04T18:05:06.933Z,99923.00
2022-08-04T18:08:38.069Z,99928.84
2022-08-04T18:13:26.332Z,99935.47
2022-08-04T18:16:14.491Z,99932.53
2022-08-04T18:19:08.960Z,99933.34
2022-08-04T18:21:46.580Z,99940.94
2022-08-04T18:24:34.596Z,99940.25
2022-08-04T18:27:06.545Z,99937.22
2022-08-04T18:29:38.972Z,99937.16
2022-08-04T18:32:09.142Z,99934.97
2022-08-04T18:34:40.663Z,99940.53
2022-08-04T18:38:06.716Z,99940.66
2022-08-04T18:40:30.307Z,99941.00
2022-08-04T18:42:56.222Z,99939.00
2022-08-04T18:45:24.109Z,99937.41
2022-08-04T18:48:01.242Z,99941.34
2022-08-04T18:50:58.524Z,99934.84
2022-08-04T18:53:16.374Z,99934.84
2022-08-04T18:55:57.988Z,99934.84
2022-08-04T18:58:27.421Z,99943.03
2022-08-04T19:00:56.142Z,99937.94
2022-08-04T19:03:30.765Z,99945.50
2022-08-04T19:06:01.914Z,99939.78
2022-08-04T19:08:33.345Z,99947.31
2022-08-04T19:11:37.493Z,99955.28
2022-08-04T19:13:57.871Z,99948.59
2022-08-04T19:16:26.483Z,99950.97
2022-08-04T19:18:53.120Z,99956.88
2022-08-04T19:22:00.107Z,99957.34
2022-08-04T19:24:26.897Z,99965.63
2022-08-04T19:26:56.075Z,99965.63
2022-08-04T19:29:23.019Z,99968.13
2022-08-04T19:31:49.713Z,99965.38
2022-08-04T19:34:34.937Z,99965.81
2022-08-04T19:37:01.781Z,99971.09
2022-08-04T19:39:31.354Z,99972.94
2022-08-04T19:44:49.799Z,99982.69
2022-08-04T19:48:12.169Z,99977.56
2022-08-04T19:50:10.395Z,99974.41
2022-08-04T19:52:37.781Z,99973.59
2022-08-04T19:55:09.932Z,99974.41
2022-08-04T19:57:46.000Z,99980.75
2022-08-04T20:00:14.200Z,99987.16
2022-08-04T20:02:41.934Z,99985.94
2022-08-04T20:05:09.488Z,99991.09
2022-08-04T20:07:44.018Z,99991.50
2022-08-04T20:10:14.081Z,99996.72
2022-08-04T20:12:42.206Z,99994.75
2022-08-04T20:15:11.085Z,100001.09
2022-08-04T20:17:55.826Z,99999.94
2022-08-04T20:20:29.809Z,99993.91
2022-08-04T20:22:57.760Z,100005.03
2022-08-04T20:25:37.264Z,100003.88
2022-08-04T20:28:05.580Z,100007.13
2022-08-04T20:30:35.149Z,100005.50
2022-08-04T20:33:04.404Z,100005.50
2022-08-04T20:36:00.845Z,100000.34
2022-08-04T20:38:33.620Z,100011.06
2022-08-04T20:41:01.819Z,100009.50
2022-08-04T20:43:31.276Z,100009.50
2022-08-04T20:45:59.422Z,100018.28
2022-08-04T20:48:33.566Z,100013.09
2022-08-04T20:51:00.678Z,100011.47
2022-08-04T20:53:46.655Z,100015.09
2022-08-04T20:56:19.373Z,100013.13
2022-08-04T20:58:59.903Z,100018.31
2022-08-04T21:01:30.232Z,100015.47
2022-08-04T21:04:20.314Z,100021.09
2022-08-04T21:06:57.283Z,100012.34
2022-08-04T21:09:37.546Z,100019.09
2022-08-04T21:12:10.612Z,100019.94
2022-08-04T21:14:53.829Z,100017.97
2022-08-04T21:17:21.112Z,100015.59
2022-08-04T21:20:08.252Z,100023.94
2022-08-04T21:22:40.290Z,100031.91
2022-08-04T21:25:15.798Z,100024.75
2022-08-04T21:27:44.237Z,100028.34
2022-08-04T21:30:24.140Z,100026.41
2022-08-04T21:32:58.756Z,100028.03
2022-08-04T21:35:36.738Z,100027.25
2022-08-04T21:38:16.409Z,100021.25
2022-08-04T21:41:01.853Z,100024.47
2022-08-04T21:46:16.806Z,100029.59
2022-08-04T21:48:45.297Z,100039.56
2022-08-04T21:51:56.953Z,100037.56
2022-08-04T21:54:16.955Z,100037.16
2022-08-04T21:56:51.419Z,100034.38
2022-08-04T21:59:23.271Z,100045.13
2022-08-04T22:01:54.642Z,100035.97
2022-08-04T22:04:21.888Z,100040.75
2022-08-04T22:06:51.935Z,100038.34
2022-08-04T22:09:21.806Z,100039.13
2022-08-04T22:11:50.660Z,100037.53
2022-08-04T22:14:28.867Z,100038.31
2022-08-04T22:16:57.705Z,100040.69
2022-08-04T22:19:50.161Z,100043.47
2022-08-04T22:22:24.706Z,100038.72
2022-08-04T22:24:58.821Z,100036.31
2022-08-04T22:27:47.295Z,100040.25
2022-08-04T22:30:17.239Z,100031.13
2022-08-04T22:32:46.455Z,100033.50
2022-08-04T22:35:36.368Z,100036.28
2022-08-04T22:38:06.537Z,100034.25
2022-08-04T22:40:49.952Z,100029.50
2022-08-04T22:43:32.311Z,100034.28
2022-08-04T22:46:03.559Z,100038.97
2022-08-04T22:48:32.569Z,100045.28
2022-08-04T22:51:00.660Z,100039.66
2022-08-04T22:53:27.973Z,100042.00
2022-08-04T22:56:06.348Z,100045.22
2022-08-04T22:58:36.307Z,100048.66
2022-08-04T23:01:08.391Z,100049.91
2022-08-04T23:03:40.308Z,100048.25
2022-08-04T23:06:10.565Z,100051.44
2022-08-04T23:08:43.320Z,100049.75
2022-08-04T23:11:14.731Z,100049.34
2022-08-04T23:13:41.854Z,100051.72
2022-08-04T23:16:10.000Z,100059.25
2022-08-04T23:18:41.858Z,100060.44
2022-08-04T23:21:10.231Z,100073.13
2022-08-04T23:23:38.225Z,100074.59
2022-08-04T23:26:22.450Z,100074.19
2022-08-04T23:28:55.660Z,100081.63
2022-08-04T23:31:22.466Z,100090.03
2022-08-04T23:33:51.746Z,100099.56
2022-08-04T23:36:29.757Z,100110.78
2022-08-04T23:39:03.979Z,100126.97
2022-08-04T23:41:54.419Z,100132.03
2022-08-04T23:44:25.089Z,100143.38
2022-08-04T23:47:03.692Z,100156.69
2022-08-04T23:49:43.887Z,100168.25
2022-08-04T23:52:28.065Z,100179.91
2022-08-04T23:54:58.845Z,100179.09
2022-08-04T23:58:02.058Z,100188.50
